createdAt,value
2023-04-04T00:00:46.510Z,100204.86
2023-04-04T00:03:17.490Z,100202.61
2023-04-04T00:05:45.762Z,100202.61
2023-04-04T00:08:13.651Z,100203.84
2023-04-04T00:10:42.131Z,100200.36
2023-04-04T00:13:10.416Z,100197.76
2023-04-04T00:15:38.242Z,100195.85
2023-04-04T00:18:06.232Z,100192.20
2023-04-04T00:20:34.106Z,100189.61
2023-04-04T00:23:01.919Z,100182.83
2023-04-04T00:25:29.788Z,100183.18
2023-04-04T00:28:00.950Z,100183.01
2023-04-04T00:30:30.310Z,100182.66
2023-04-04T00:32:58.700Z,100176.42
2023-04-04T00:35:26.734Z,100173.31
2023-04-04T00:37:54.662Z,100175.91
2023-04-04T00:40:22.637Z,100173.66
2023-04-04T00:42:51.166Z,100171.60
2023-04-04T00:45:19.131Z,100169.88
2023-04-04T00:47:48.285Z,100169.89
2023-04-04T00:50:17.817Z,100171.10
2023-04-04T00:52:45.793Z,100165.89
2023-04-04T00:55:13.806Z,100163.48
2023-04-04T00:57:41.825Z,100161.74
2023-04-04T01:00:10.564Z,100159.14
2023-04-04T01:02:38.675Z,100157.41
2023-04-04T01:05:08.102Z,100154.12
2023-04-04T01:07:37.290Z,100152.20
2023-04-04T01:10:06.446Z,100151.67
2023-04-04T01:12:35.523Z,100150.45
2023-04-04T01:15:03.695Z,100149.08
2023-04-04T01:17:31.725Z,100150.29
2023-04-04T01:20:06.124Z,100148.39
2023-04-04T01:22:42.285Z,100143.88
2023-04-04T01:25:11.664Z,100141.63
2023-04-04T01:27:42.179Z,100142.84
2023-04-04T01:30:15.038Z,100140.06
2023-04-04T01:32:56.643Z,100137.46
2023-04-04T01:35:31.432Z,100138.86
2023-04-04T01:38:19.098Z,100135.89
2023-04-04T01:40:49.999Z,100134.69
2023-04-04T01:43:18.899Z,100131.06
2023-04-04T01:45:47.102Z,100133.31
2023-04-04T01:48:16.796Z,100130.19
2023-04-04T01:50:47.659Z,100128.10
2023-04-04T01:53:15.953Z,100126.71
2023-04-04T01:55:44.013Z,100126.90
2023-04-04T01:58:12.519Z,100125.67
2023-04-04T02:00:40.692Z,100125.86
2023-04-04T02:03:09.367Z,100125.70
2023-04-04T02:05:37.470Z,100124.84
2023-04-04T02:08:05.633Z,100121.35
2023-04-04T02:10:37.202Z,100121.17
2023-04-04T02:13:06.688Z,100119.45
2023-04-04T02:15:35.562Z,100118.59
2023-04-04T02:18:03.646Z,100119.45
2023-04-04T02:20:31.897Z,100119.46
2023-04-04T02:22:59.734Z,100122.23
2023-04-04T02:25:27.898Z,100126.22
2023-04-04T02:27:55.879Z,100127.96
2023-04-04T02:30:23.908Z,100126.73
2023-04-04T02:32:52.422Z,100126.05
2023-04-04T02:35:21.449Z,100124.14
2023-04-04T02:37:49.342Z,100122.41
2023-04-04T02:40:39.457Z,100120.50
2023-04-04T02:43:07.617Z,100121.36
2023-04-04T02:45:37.047Z,100125.88
2023-04-04T02:48:25.882Z,100127.95
2023-04-04T02:50:54.844Z,100125.70
2023-04-04T02:53:22.834Z,100128.13
2023-04-04T02:55:52.413Z,100129.49
2023-04-04T02:58:20.330Z,100131.58
2023-04-04T03:00:54.775Z,100125.69
2023-04-04T03:03:24.300Z,100129.15
2023-04-04T03:05:52.986Z,100136.09
2023-04-04T03:08:20.884Z,100134.86
2023-04-04T03:10:49.053Z,100136.93
2023-04-04T03:13:17.193Z,100135.20
2023-04-04T03:15:47.409Z,100130.52
2023-04-04T03:18:16.535Z,100131.05
2023-04-04T03:20:44.481Z,100127.58
2023-04-04T03:23:12.347Z,100127.06
2023-04-04T03:25:40.614Z,100125.15
2023-04-04T03:28:12.635Z,100131.73
2023-04-04T03:30:41.721Z,100131.21
2023-04-04T03:33:09.981Z,100128.59
2023-04-04T03:35:39.776Z,100128.27
2023-04-04T03:38:08.936Z,100129.48
2023-04-04T03:40:37.077Z,100124.80
2023-04-04T03:43:10.135Z,100127.89
2023-04-04T03:45:38.487Z,100131.16
2023-04-04T03:48:07.289Z,100128.73
2023-04-04T03:50:37.012Z,100125.80
2023-04-04T03:53:04.872Z,100128.05
2023-04-04T03:55:34.027Z,100123.54
2023-04-04T03:58:01.898Z,100119.39
2023-04-04T04:00:30.610Z,100123.71
2023-04-04T04:02:58.515Z,100120.08
2023-04-04T04:05:26.431Z,100120.24
2023-04-04T04:07:54.488Z,100125.27
2023-04-04T04:10:22.398Z,100126.66
2023-04-04T04:12:50.257Z,100126.33
2023-04-04T04:15:18.371Z,100126.32
2023-04-04T04:17:47.164Z,100126.48
2023-04-04T04:20:14.983Z,100125.44
2023-04-04T04:22:50.529Z,100123.20
2023-04-04T04:25:19.316Z,100126.65
2023-04-04T04:27:59.373Z,100131.15
2023-04-04T04:30:27.601Z,100128.73
2023-04-04T04:32:56.265Z,100128.55
2023-04-04T04:35:27.753Z,100124.55
2023-04-04T04:37:55.852Z,100123.52
2023-04-04T04:40:23.801Z,100122.48
2023-04-04T04:42:57.671Z,100122.48
2023-04-04T04:45:25.832Z,100124.04
2023-04-04T04:48:04.512Z,100124.20
2023-04-04T04:50:33.439Z,100122.98
2023-04-04T04:53:01.564Z,100122.29
2023-04-04T04:55:29.432Z,100125.06
2023-04-04T04:58:05.625Z,100124.20
2023-04-04T05:00:33.589Z,100128.52
2023-04-04T05:03:01.580Z,100125.05
2023-04-04T05:05:37.837Z,100132.34
2023-04-04T05:08:09.093Z,100136.84
2023-04-04T05:10:39.785Z,100130.62
2023-04-04T05:13:10.026Z,100135.32
2023-04-04T05:15:42.737Z,100136.54
2023-04-04T05:18:11.087Z,100141.71
2023-04-04T05:20:39.468Z,100140.99
2023-04-04T05:23:07.848Z,100137.88
2023-04-04T05:25:39.238Z,100142.20
2023-04-04T05:28:08.075Z,100141.17
2023-04-04T05:30:37.330Z,100139.77
2023-04-04T05:33:17.804Z,100140.98
2023-04-04T05:35:51.924Z,100139.45
2023-04-04T05:38:20.480Z,100140.85
2023-04-04T05:40:49.417Z,100137.39
2023-04-04T05:43:17.878Z,100140.85
2023-04-04T05:45:56.833Z,100149.38
2023-04-04T05:48:25.275Z,100151.13
2023-04-04T05:50:53.922Z,100153.39
2023-04-04T05:53:29.358Z,100154.08
2023-04-04T05:55:58.856Z,100149.39
2023-04-04T05:58:30.358Z,100147.48
2023-04-04T06:00:59.120Z,100141.80
2023-04-04T06:03:28.886Z,100139.02
2023-04-04T06:05:58.168Z,100146.82
2023-04-04T06:08:26.290Z,100144.74
2023-04-04T06:10:56.047Z,100143.38
2023-04-04T06:13:24.787Z,100148.40
2023-04-04T06:15:57.227Z,100148.58
2023-04-04T06:18:25.068Z,100149.79
2023-04-04T06:20:52.953Z,100149.27
2023-04-04T06:23:21.011Z,100145.80
2023-04-04T06:25:51.101Z,100142.69
2023-04-04T06:28:22.138Z,100140.25
2023-04-04T06:30:50.728Z,100138.69
2023-04-04T06:33:27.605Z,100138.67
2023-04-04T06:35:56.056Z,100139.70
2023-04-04T06:38:24.806Z,100140.72
2023-04-04T06:40:53.611Z,100135.86
2023-04-04T06:43:21.725Z,100134.98
2023-04-04T06:45:49.780Z,100135.83
2023-04-04T06:48:20.945Z,100137.54
2023-04-04T06:50:49.237Z,100139.21
2023-04-04T06:53:18.619Z,100138.61
2023-04-04T06:55:46.514Z,100136.45
2023-04-04T06:58:14.359Z,100137.62
2023-04-04T07:00:42.436Z,100134.80
2023-04-04T07:03:10.518Z,100134.54
2023-04-04T07:05:41.754Z,100134.10
2023-04-04T07:08:09.777Z,100138.55
2023-04-04T07:10:39.647Z,100135.94
2023-04-04T07:13:07.946Z,100140.08
2023-04-04T07:15:35.805Z,100139.19
2023-04-04T07:18:03.661Z,100142.65
2023-04-04T07:20:32.314Z,100143.86
2023-04-04T07:23:00.127Z,100141.73
2023-04-04T07:25:27.936Z,100137.13
2023-04-04T07:28:05.981Z,100142.81
2023-04-04T07:30:40.457Z,100143.07
2023-04-04T07:33:08.465Z,100139.36
2023-04-04T07:35:36.551Z,100139.92
2023-04-04T07:38:05.236Z,100141.31
2023-04-04T07:40:33.190Z,100139.77
2023-04-04T07:43:01.249Z,100136.79
2023-04-04T07:45:29.035Z,100139.50
2023-04-04T07:47:57.001Z,100138.24
2023-04-04T07:50:24.888Z,100138.65
2023-04-04T07:52:54.468Z,100141.42
2023-04-04T07:55:25.221Z,100141.60
2023-04-04T07:57:53.466Z,100140.98
2023-04-04T08:00:22.642Z,100138.75
2023-04-04T08:02:55.241Z,100136.23
2023-04-04T08:05:23.912Z,100136.92
2023-04-04T08:07:52.059Z,100148.30
2023-04-04T08:10:21.699Z,100146.99
2023-04-04T08:12:49.650Z,100145.86
2023-04-04T08:15:17.670Z,100142.60
2023-04-04T08:17:45.574Z,100138.40
2023-04-04T08:20:13.797Z,100136.90
2023-04-04T08:22:42.737Z,100140.20
2023-04-04T08:25:12.066Z,100139.93
2023-04-04T08:27:41.188Z,100139.07
2023-04-04T08:30:09.458Z,100131.83
2023-04-04T08:32:37.383Z,100130.84
2023-04-04T08:35:06.096Z,100133.64
2023-04-04T08:37:35.812Z,100129.67
2023-04-04T08:40:04.477Z,100128.81
2023-04-04T08:42:37.047Z,100131.39
2023-04-04T08:45:05.647Z,100131.92
2023-04-04T08:47:36.287Z,100130.66
2023-04-04T08:50:06.118Z,100136.84
2023-04-04T08:52:35.235Z,100130.73
2023-04-04T08:55:05.553Z,100130.56
2023-04-04T08:57:33.523Z,100129.15
2023-04-04T09:00:06.060Z,100134.02
2023-04-04T09:02:49.576Z,100132.70
2023-04-04T09:05:18.322Z,100125.26
2023-04-04T09:07:46.427Z,100124.54
2023-04-04T09:10:14.261Z,100112.91
2023-04-04T09:12:47.449Z,100110.08
2023-04-04T09:15:15.975Z,100103.98
2023-04-04T09:17:44.129Z,100100.98
2023-04-04T09:20:33.808Z,100105.85
2023-04-04T09:23:02.036Z,100097.44
2023-04-04T09:25:30.056Z,100101.25
2023-04-04T09:27:58.161Z,100102.29
2023-04-04T09:30:25.980Z,100096.47
2023-04-04T09:32:54.009Z,100103.95
2023-04-04T09:35:21.994Z,100103.10
2023-04-04T09:37:49.932Z,100103.39
2023-04-04T09:40:18.125Z,100099.16
2023-04-04T09:42:46.042Z,100106.61
2023-04-04T09:45:22.303Z,100106.91
2023-04-04T09:47:57.919Z,100106.98
2023-04-04T09:50:28.733Z,100106.38
2023-04-04T09:52:59.378Z,100098.70
2023-04-04T09:55:34.752Z,100103.40
2023-04-04T09:58:17.591Z,100115.95
2023-04-04T10:00:49.313Z,100116.13
2023-04-04T10:03:18.768Z,100118.44
2023-04-04T10:05:47.446Z,100114.50
2023-04-04T10:08:21.314Z,100117.07
2023-04-04T10:11:09.696Z,100116.81
2023-04-04T10:13:41.741Z,100109.95
2023-04-04T10:16:10.878Z,100109.60
2023-04-04T10:18:39.696Z,100105.60
2023-04-04T10:23:41.511Z,100108.20
2023-04-04T10:26:09.986Z,100107.30
2023-04-04T10:28:37.868Z,100102.09
2023-04-04T10:31:14.834Z,100107.45
2023-04-04T10:34:01.852Z,100101.70
2023-04-04T10:36:36.520Z,100093.95
2023-04-04T10:39:04.830Z,100093.02
2023-04-04T10:41:33.230Z,100093.45
2023-04-04T10:44:12.202Z,100099.71
2023-04-04T10:46:43.207Z,100095.88
2023-04-04T10:49:11.925Z,100091.42
2023-04-04T10:51:52.847Z,100088.98
2023-04-04T10:54:21.419Z,100091.05
2023-04-04T10:56:49.425Z,100083.19
2023-04-04T10:59:18.222Z,100083.30
2023-04-04T11:01:51.236Z,100083.48
2023-04-04T11:04:21.870Z,100084.31
2023-04-04T11:07:19.507Z,100079.43
2023-04-04T11:09:47.343Z,100078.67
2023-04-04T11:12:20.387Z,100085.35
2023-04-04T11:15:07.616Z,100088.58
2023-04-04T11:17:52.815Z,100084.63
2023-04-04T11:20:31.790Z,100086.36
2023-04-04T11:23:05.820Z,100087.77
2023-04-04T11:25:35.017Z,100081.92
2023-04-04T11:28:08.173Z,100079.02
2023-04-04T11:30:44.088Z,100076.21
2023-04-04T11:33:12.832Z,100081.62
2023-04-04T11:35:47.151Z,100074.05
2023-04-04T11:38:16.252Z,100072.83
2023-04-04T11:40:53.817Z,100061.30
2023-04-04T11:43:22.448Z,100061.02
2023-04-04T11:45:50.776Z,100059.91
2023-04-04T11:48:20.281Z,100059.35
2023-04-04T11:50:50.101Z,100057.21
2023-04-04T11:53:17.979Z,100054.25
2023-04-04T11:55:50.294Z,100054.27
2023-04-04T11:58:18.399Z,100049.17
2023-04-04T12:00:46.955Z,100056.17
2023-04-04T12:03:17.156Z,100058.23
2023-04-04T12:05:46.608Z,100054.84
2023-04-04T12:08:15.800Z,100056.08
2023-04-04T12:10:44.430Z,100056.14
2023-04-04T12:13:13.171Z,100054.35
2023-04-04T12:15:43.534Z,100053.86
2023-04-04T12:18:21.806Z,100053.67
2023-04-04T12:20:53.527Z,100052.80
2023-04-04T12:23:22.191Z,100050.02
2023-04-04T12:25:54.690Z,100052.62
2023-04-04T12:28:23.372Z,100054.13
2023-04-04T12:30:51.629Z,100051.44
2023-04-04T12:33:19.704Z,100056.77
2023-04-04T12:35:54.917Z,100055.04
2023-04-04T12:38:22.899Z,100049.77
2023-04-04T12:40:51.310Z,100043.23
2023-04-04T12:43:20.735Z,100041.17
2023-04-04T12:45:51.864Z,100033.88
2023-04-04T12:48:21.393Z,100030.48
2023-04-04T12:50:52.053Z,100029.29
2023-04-04T12:56:05.181Z,100025.30
2023-04-04T12:58:35.894Z,100027.16
2023-04-04T13:01:05.615Z,100028.33
2023-04-04T13:03:33.979Z,100018.52
2023-04-04T13:06:02.590Z,100019.09
2023-04-04T13:08:30.866Z,100024.16
2023-04-04T13:11:04.859Z,100023.84
2023-04-04T13:13:40.222Z,100021.51
2023-04-04T13:16:09.806Z,100017.81
2023-04-04T13:18:39.421Z,100013.77
2023-04-04T13:21:07.955Z,100011.52
2023-04-04T13:23:41.044Z,100012.85
2023-04-04T13:26:10.271Z,100003.77
2023-04-04T13:28:38.642Z,100004.26
2023-04-04T13:31:08.761Z,100006.77
2023-04-04T13:33:37.775Z,100001.92
2023-04-04T13:36:06.208Z,100008.50
2023-04-04T13:38:34.546Z,100005.02
2023-04-04T13:41:02.554Z,100003.05
2023-04-04T13:43:30.396Z,100000.52
2023-04-04T13:45:58.294Z,100005.34
2023-04-04T13:48:26.506Z,100003.23
2023-04-04T13:50:55.337Z,100001.84
2023-04-04T13:53:23.542Z,100003.37
2023-04-04T13:56:17.142Z,99999.40
2023-04-04T13:58:39.749Z,99996.71
2023-04-04T14:01:08.253Z,99992.84
2023-04-04T14:03:36.992Z,99996.52
2023-04-04T14:06:10.405Z,99991.36
2023-04-04T14:08:39.514Z,99992.90
2023-04-04T14:11:07.641Z,99995.42
2023-04-04T14:13:36.782Z,99996.52
2023-04-04T14:16:05.235Z,99988.17
2023-04-04T14:18:34.386Z,99985.13
2023-04-04T14:21:03.205Z,99984.20
2023-04-04T14:23:31.835Z,99990.20
2023-04-04T14:25:59.864Z,99986.59
2023-04-04T14:28:28.332Z,99983.67
2023-04-04T14:30:56.389Z,99984.92
2023-04-04T14:33:24.366Z,99981.27
2023-04-04T14:35:52.315Z,99983.73
2023-04-04T14:38:20.262Z,99984.96
2023-04-04T14:40:49.011Z,99983.58
2023-04-04T14:43:16.899Z,99981.86
2023-04-04T14:45:44.737Z,99975.09
2023-04-04T14:48:12.585Z,99981.05
2023-04-04T14:50:42.701Z,99980.09
2023-04-04T14:53:11.035Z,99974.63
2023-04-04T14:55:39.271Z,99973.89
2023-04-04T14:58:07.359Z,99976.20
2023-04-04T15:00:36.154Z,99970.72
2023-04-04T15:03:07.123Z,99967.54
2023-04-04T15:05:35.414Z,99966.29
2023-04-04T15:08:03.873Z,99966.02
2023-04-04T15:10:31.666Z,99965.38
2023-04-04T15:12:59.509Z,99966.81
2023-04-04T15:15:29.044Z,99968.61
2023-04-04T15:17:57.061Z,99964.69
2023-04-04T15:20:25.018Z,99963.66
2023-04-04T15:22:52.833Z,99962.33
2023-04-04T15:25:20.910Z,99960.06
2023-04-04T15:27:48.875Z,99959.72
2023-04-04T15:30:16.872Z,99957.21
2023-04-04T15:32:44.888Z,99955.47
2023-04-04T15:35:20.902Z,99953.60
2023-04-04T15:37:49.243Z,99951.73
2023-04-04T15:40:17.768Z,99953.69
2023-04-04T15:42:46.732Z,99951.63
2023-04-04T15:45:15.321Z,99953.27
2023-04-04T15:47:44.946Z,99951.23
2023-04-04T15:50:13.285Z,99952.05
2023-04-04T15:52:41.803Z,99948.80
2023-04-04T15:55:14.515Z,99949.58
2023-04-04T15:57:44.545Z,99948.28
2023-04-04T16:00:14.587Z,99946.80
2023-04-04T16:02:42.779Z,99948.99
2023-04-04T16:05:11.048Z,99945.77
2023-04-04T16:07:39.028Z,99945.81
2023-04-04T16:10:07.410Z,99945.16
2023-04-04T16:12:35.249Z,99945.69
2023-04-04T16:15:05.319Z,99945.05
2023-04-04T16:17:33.373Z,99944.92
2023-04-04T16:20:01.731Z,99942.90
2023-04-04T16:22:29.714Z,99941.80
2023-04-04T16:24:57.552Z,99940.83
2023-04-04T16:27:25.445Z,99939.80
2023-04-04T16:29:53.302Z,99936.86
2023-04-04T16:32:21.228Z,99936.75
2023-04-04T16:34:49.104Z,99936.66
2023-04-04T16:37:17.296Z,99930.41
2023-04-04T16:39:46.688Z,99922.69
2023-04-04T16:42:14.787Z,99922.14
2023-04-04T16:44:43.395Z,99927.16
2023-04-04T16:47:12.248Z,99927.59
2023-04-04T16:49:41.270Z,99922.83
2023-04-04T16:52:10.715Z,99925.54
2023-04-04T16:54:38.635Z,99925.19
2023-04-04T16:57:07.420Z,99923.95
2023-04-04T16:59:38.733Z,99922.96
2023-04-04T17:02:10.848Z,99918.80
2023-04-04T17:04:41.649Z,99919.77
2023-04-04T17:07:10.434Z,99920.05
2023-04-04T17:09:38.581Z,99924.10
2023-04-04T17:12:06.714Z,99918.23
2023-04-04T17:14:35.621Z,99917.42
2023-04-04T17:17:05.384Z,99913.48
2023-04-04T17:19:35.080Z,99912.13
2023-04-04T17:22:03.796Z,99914.23
2023-04-04T17:24:31.837Z,99911.00
2023-04-04T17:27:02.384Z,99912.28
2023-04-04T17:29:30.794Z,99908.36
2023-04-04T17:31:59.698Z,99912.27
2023-04-04T17:34:28.278Z,99912.16
2023-04-04T17:36:58.015Z,99912.05
2023-04-04T17:39:26.257Z,99907.77
2023-04-04T17:41:54.674Z,99904.86
2023-04-04T17:44:22.887Z,99905.60
2023-04-04T17:46:50.768Z,99906.20
2023-04-04T17:49:20.582Z,99907.65
2023-04-04T17:51:49.034Z,99911.02
2023-04-04T17:54:17.474Z,99911.27
2023-04-04T17:56:50.428Z,99913.42
2023-04-04T17:59:18.941Z,99912.42
2023-04-04T18:01:47.069Z,99914.23
2023-04-04T18:04:15.590Z,99912.38
2023-04-04T18:06:43.593Z,99910.86
2023-04-04T18:09:12.701Z,99912.29
2023-04-04T18:11:41.028Z,99914.06
2023-04-04T18:14:09.030Z,99915.83
2023-04-04T18:16:40.380Z,99918.29
2023-04-04T18:19:10.072Z,99917.80
2023-04-04T18:21:38.504Z,99917.48
2023-04-04T18:24:07.836Z,99919.25
2023-04-04T18:26:36.014Z,99917.23
2023-04-04T18:29:03.873Z,99916.23
2023-04-04T18:31:31.869Z,99917.10
2023-04-04T18:33:59.882Z,99915.56
2023-04-04T18:36:27.981Z,99916.45
2023-04-04T18:38:55.968Z,99914.56
2023-04-04T18:41:24.023Z,99915.27
2023-04-04T18:43:52.204Z,99913.91
2023-04-04T18:46:20.247Z,99914.96
2023-04-04T18:48:48.295Z,99914.98
2023-04-04T18:51:16.287Z,99916.38
2023-04-04T18:53:44.447Z,99914.34
2023-04-04T18:56:12.299Z,99914.33
2023-04-04T18:58:41.788Z,99914.17
2023-04-04T19:01:11.536Z,99910.03
2023-04-04T19:03:43.409Z,99913.33
2023-04-04T19:06:12.587Z,99916.45
2023-04-04T19:08:42.393Z,99914.90
2023-04-04T19:11:11.089Z,99916.13
2023-04-04T19:13:39.259Z,99916.30
2023-04-04T19:16:07.289Z,99914.59
2023-04-04T19:18:35.274Z,99914.24
2023-04-04T19:21:05.593Z,99916.33
2023-04-04T19:23:33.514Z,99913.21
2023-04-04T19:26:02.471Z,99912.34
2023-04-04T19:28:30.531Z,99909.92
2023-04-04T19:30:58.572Z,99908.19
2023-04-04T19:33:27.356Z,99909.23
2023-04-04T19:35:55.852Z,99905.77
2023-04-04T19:38:25.868Z,99906.99
2023-04-04T19:41:16.820Z,99904.91
2023-04-04T19:43:47.058Z,99908.04
2023-04-04T19:46:29.606Z,99906.65
2023-04-04T19:48:59.191Z,99906.48
2023-04-04T19:51:27.933Z,99906.66
2023-04-04T19:53:58.344Z,99908.40
2023-04-04T19:56:28.370Z,99903.37
2023-04-04T19:58:58.780Z,99903.55
2023-04-04T20:01:29.168Z,99897.14
2023-04-04T20:04:00.746Z,99892.13
2023-04-04T20:06:31.481Z,99893.35
2023-04-04T20:09:01.945Z,99890.75
2023-04-04T20:11:34.050Z,99888.84
2023-04-04T20:14:06.109Z,99889.02
2023-04-04T20:16:34.393Z,99887.30
2023-04-04T20:19:06.712Z,99886.08
2023-04-04T20:21:35.801Z,99884.36
2023-04-04T20:24:08.275Z,99884.19
2023-04-04T20:26:36.438Z,99885.39
2023-04-04T20:29:07.077Z,99884.70
2023-04-04T20:31:47.133Z,99881.77
2023-04-04T20:34:45.387Z,99883.15
2023-04-04T20:37:20.205Z,99881.23
2023-04-04T20:39:59.747Z,99882.28
2023-04-04T20:42:29.205Z,99881.07
2023-04-04T20:45:08.961Z,99878.65
2023-04-04T20:47:51.202Z,99875.36
2023-04-04T20:50:22.006Z,99875.71
2023-04-04T20:52:52.349Z,99875.70
2023-04-04T20:55:22.555Z,99876.91
2023-04-04T20:57:52.706Z,99877.08
2023-04-04T21:00:30.084Z,99876.20
2023-04-04T21:03:01.306Z,99873.45
2023-04-04T21:05:32.388Z,99871.55
2023-04-04T21:08:01.910Z,99872.92
2023-04-04T21:10:29.699Z,99872.93
2023-04-04T21:13:00.802Z,99870.16
2023-04-04T21:15:38.570Z,99869.30
2023-04-04T21:18:08.713Z,99872.41
2023-04-04T21:20:46.180Z,99870.34
2023-04-04T21:23:26.197Z,99869.30
2023-04-04T21:26:03.316Z,99870.52
2023-04-04T21:28:45.134Z,99865.84
2023-04-04T21:31:15.833Z,99862.55
2023-04-04T21:33:44.758Z,99857.54
2023-04-04T21:36:27.820Z,99855.46
2023-04-04T21:38:58.033Z,99857.36
2023-04-04T21:41:31.117Z,99859.27
2023-04-04T21:44:04.371Z,99856.50
2023-04-04T21:46:34.047Z,99855.98
2023-04-04T21:49:02.423Z,99851.31
2023-04-04T21:51:30.441Z,99851.31
2023-04-04T21:53:59.912Z,99850.45
2023-04-04T21:56:31.267Z,99851.13
2023-04-04T21:59:01.351Z,99851.48
2023-04-04T22:01:30.666Z,99848.20
2023-04-04T22:03:58.900Z,99848.02
2023-04-04T22:06:27.674Z,99846.64
2023-04-04T22:08:57.036Z,99848.55
2023-04-04T22:11:27.246Z,99845.08
2023-04-04T22:14:04.994Z,99843.70
2023-04-04T22:16:36.904Z,99840.23
2023-04-04T22:19:05.281Z,99837.83
2023-04-04T22:21:36.263Z,99834.20
2023-04-04T22:24:05.991Z,99832.30
2023-04-04T22:26:34.242Z,99831.77
2023-04-04T22:29:04.203Z,99827.61
2023-04-04T22:31:34.703Z,99829.70
2023-04-04T22:34:03.490Z,99828.84
2023-04-04T22:36:31.668Z,99828.14
2023-04-04T22:38:59.663Z,99826.58
2023-04-04T22:41:29.174Z,99828.84
2023-04-04T22:43:58.079Z,99830.39
2023-04-04T22:46:28.817Z,99830.20
2023-04-04T22:49:06.088Z,99830.90
2023-04-04T22:51:45.159Z,99828.48
2023-04-04T22:54:17.040Z,99828.66
2023-04-04T22:56:45.390Z,99828.30
2023-04-04T22:59:13.657Z,99823.46
2023-04-04T23:01:42.168Z,99822.94
2023-04-04T23:04:10.434Z,99825.52
2023-04-04T23:06:38.765Z,99823.11
2023-04-04T23:09:08.083Z,99816.70
2023-04-04T23:11:37.675Z,99815.31
2023-04-04T23:14:09.728Z,99811.86
2023-04-04T23:16:38.240Z,99811.69
2023-04-04T23:19:06.158Z,99805.29
2023-04-04T23:21:34.972Z,99803.57
2023-04-04T23:24:03.838Z,99798.72
2023-04-04T23:26:32.620Z,99800.10
2023-04-04T23:29:01.506Z,99792.48
2023-04-04T23:31:29.432Z,99796.29
2023-04-04T23:33:58.388Z,99794.90
2023-04-04T23:36:27.169Z,99793.34
2023-04-04T23:38:55.374Z,99791.09
2023-04-04T23:41:23.359Z,99788.14
2023-04-04T23:43:51.300Z,99784.52
2023-04-04T23:46:19.830Z,99783.82
2023-04-04T23:48:47.743Z,99779.86
2023-04-04T23:51:16.165Z,99780.38
2023-04-04T23:53:44.013Z,99779.01
2023-04-04T23:56:12.414Z,99782.80
2023-04-04T23:58:40.520Z,99784.88
